sensor_id;sensor_type;location;lat;lon;timestamp;P1;durP1;ratioP1;P2;durP2;ratioP2
7116;SDS011;3600;48.568;7.870;2023-02-28T00:01:36;2.53;;;2.03;;
7116;SDS011;3600;48.568;7.870;2023-02-28T00:04:14;2.50;;;2.30;;
7116;SDS011;3600;48.568;7.870;2023-02-28T00:06:48;2.70;;;2.50;;
7116;SDS011;3600;48.568;7.870;2023-02-28T00:09:25;2.40;;;2.20;;
7116;SDS011;3600;48.568;7.870;2023-02-28T00:11:56;2.43;;;2.23;;
7116;SDS011;3600;48.568;7.870;2023-02-28T00:14:30;2.90;;;2.43;;
7116;SDS011;3600;48.568;7.870;2023-02-28T00:17:00;2.30;;;2.10;;
7116;SDS011;3600;48.568;7.870;2023-02-28T00:19:27;2.40;;;2.20;;
7116;SDS011;3600;48.568;7.870;2023-02-28T00:21:57;2.37;;;2.17;;
7116;SDS011;3600;48.568;7.870;2023-02-28T00:24:27;2.40;;;2.20;;
7116;SDS011;3600;48.568;7.870;2023-02-28T00:26:57;2.50;;;2.30;;
7116;SDS011;3600;48.568;7.870;2023-02-28T00:29:46;3.00;;;2.70;;
7116;SDS011;3600;48.568;7.870;2023-02-28T00:32:13;3.37;;;2.20;;
7116;SDS011;3600;48.568;7.870;2023-02-28T00:34:40;5.87;;;2.97;;
7116;SDS011;3600;48.568;7.870;2023-02-28T00:37:09;3.10;;;2.80;;
7116;SDS011;3600;48.568;7.870;2023-02-28T00:39:40;4.10;;;2.90;;
7116;SDS011;3600;48.568;7.870;2023-02-28T00:42:15;2.13;;;2.03;;
7116;SDS011;3600;48.568;7.870;2023-02-28T00:44:42;3.43;;;3.13;;
7116;SDS011;3600;48.568;7.870;2023-02-28T00:47:09;3.10;;;2.80;;
7116;SDS011;3600;48.568;7.870;2023-02-28T00:49:36;4.27;;;2.97;;
7116;SDS011;3600;48.568;7.870;2023-02-28T00:52:06;2.90;;;2.60;;
7116;SDS011;3600;48.568;7.870;2023-02-28T00:54:32;3.97;;;2.53;;
7116;SDS011;3600;48.568;7.870;2023-02-28T00:57:03;3.20;;;2.90;;
7116;SDS011;3600;48.568;7.870;2023-02-28T00:59:30;2.63;;;2.43;;
7116;SDS011;3600;48.568;7.870;2023-02-28T01:02:00;2.70;;;2.50;;
7116;SDS011;3600;48.568;7.870;2023-02-28T01:04:30;2.90;;;2.50;;
7116;SDS011;3600;48.568;7.870;2023-02-28T01:07:08;3.87;;;2.70;;
7116;SDS011;3600;48.568;7.870;2023-02-28T01:12:43;4.10;;;2.90;;
7116;SDS011;3600;48.568;7.870;2023-02-28T01:15:12;2.87;;;2.67;;
7116;SDS011;3600;48.568;7.870;2023-02-28T01:17:41;3.30;;;2.87;;
7116;SDS011;3600;48.568;7.870;2023-02-28T01:20:12;3.77;;;3.07;;
7116;SDS011;3600;48.568;7.870;2023-02-28T01:22:40;3.63;;;2.47;;
7116;SDS011;3600;48.568;7.870;2023-02-28T01:25:18;2.60;;;2.40;;
7116;SDS011;3600;48.568;7.870;2023-02-28T01:27:52;2.97;;;2.77;;
7116;SDS011;3600;48.568;7.870;2023-02-28T01:30:33;5.23;;;3.07;;
7116;SDS011;3600;48.568;7.870;2023-02-28T01:33:00;3.43;;;3.03;;
7116;SDS011;3600;48.568;7.870;2023-02-28T01:35:36;3.13;;;2.83;;
7116;SDS011;3600;48.568;7.870;2023-02-28T01:38:06;3.57;;;2.63;;
7116;SDS011;3600;48.568;7.870;2023-02-28T01:40:50;3.03;;;2.73;;
7116;SDS011;3600;48.568;7.870;2023-02-28T01:43:25;4.10;;;2.87;;
7116;SDS011;3600;48.568;7.870;2023-02-28T01:45:57;4.97;;;3.60;;
7116;SDS011;3600;48.568;7.870;2023-02-28T01:48:26;4.57;;;3.67;;
7116;SDS011;3600;48.568;7.870;2023-02-28T01:51:08;5.57;;;2.97;;
7116;SDS011;3600;48.568;7.870;2023-02-28T01:53:40;4.03;;;3.30;;
7116;SDS011;3600;48.568;7.870;2023-02-28T01:56:10;3.20;;;2.90;;
7116;SDS011;3600;48.568;7.870;2023-02-28T01:58:47;4.30;;;3.33;;
7116;SDS011;3600;48.568;7.870;2023-02-28T02:01:15;3.07;;;2.87;;
7116;SDS011;3600;48.568;7.870;2023-02-28T02:03:57;4.07;;;3.53;;
7116;SDS011;3600;48.568;7.870;2023-02-28T02:06:29;4.27;;;3.23;;
7116;SDS011;3600;48.568;7.870;2023-02-28T02:09:17;4.23;;;3.23;;
7116;SDS011;3600;48.568;7.870;2023-02-28T02:11:55;3.90;;;3.27;;
7116;SDS011;3600;48.568;7.870;2023-02-28T02:14:39;4.80;;;2.70;;
7116;SDS011;3600;48.568;7.870;2023-02-28T02:17:39;3.63;;;3.30;;
7116;SDS011;3600;48.568;7.870;2023-02-28T02:37:20;3.70;;;3.43;;
7116;SDS011;3600;48.568;7.870;2023-02-28T02:40:03;3.53;;;3.23;;
7116;SDS011;3600;48.568;7.870;2023-02-28T02:42:36;3.60;;;3.23;;
7116;SDS011;3600;48.568;7.870;2023-02-28T02:48:05;3.50;;;3.23;;
7116;SDS011;3600;48.568;7.870;2023-02-28T02:50:41;3.43;;;3.13;;
7116;SDS011;3600;48.568;7.870;2023-02-28T02:53:17;4.10;;;3.60;;
7116;SDS011;3600;48.568;7.870;2023-02-28T02:55:54;3.43;;;2.93;;
7116;SDS011;3600;48.568;7.870;2023-02-28T02:58:25;3.70;;;3.50;;
7116;SDS011;3600;48.568;7.870;2023-02-28T03:00:57;4.00;;;3.60;;
7116;SDS011;3600;48.568;7.870;2023-02-28T03:03:34;4.00;;;3.40;;
7116;SDS011;3600;48.568;7.870;2023-02-28T03:06:06;4.03;;;3.50;;
7116;SDS011;3600;48.568;7.870;2023-02-28T03:08:34;4.00;;;3.57;;
7116;SDS011;3600;48.568;7.870;2023-02-28T03:11:12;3.50;;;3.20;;
7116;SDS011;3600;48.568;7.870;2023-02-28T03:13:51;4.67;;;3.80;;
7116;SDS011;3600;48.568;7.870;2023-02-28T03:21:55;3.90;;;3.60;;
7116;SDS011;3600;48.568;7.870;2023-02-28T03:24:37;4.00;;;3.60;;
7116;SDS011;3600;48.568;7.870;2023-02-28T03:27:24;3.80;;;3.50;;
7116;SDS011;3600;48.568;7.870;2023-02-28T03:29:58;3.67;;;3.37;;
7116;SDS011;3600;48.568;7.870;2023-02-28T03:32:37;3.97;;;3.67;;
7116;SDS011;3600;48.568;7.870;2023-02-28T03:35:14;3.70;;;3.40;;
7116;SDS011;3600;48.568;7.870;2023-02-28T03:38:17;6.97;;;3.70;;
7116;SDS011;3600;48.568;7.870;2023-02-28T03:41:19;4.07;;;3.70;;
7116;SDS011;3600;48.568;7.870;2023-02-28T03:43:48;3.83;;;3.50;;
7116;SDS011;3600;48.568;7.870;2023-02-28T03:46:30;3.57;;;3.10;;
7116;SDS011;3600;48.568;7.870;2023-02-28T03:49:17;5.00;;;4.50;;
7116;SDS011;3600;48.568;7.870;2023-02-28T03:52:04;3.73;;;3.43;;
7116;SDS011;3600;48.568;7.870;2023-02-28T03:54:34;5.33;;;4.10;;
7116;SDS011;3600;48.568;7.870;2023-02-28T03:57:18;4.43;;;3.40;;
7116;SDS011;3600;48.568;7.870;2023-02-28T04:02:47;3.67;;;3.30;;
7116;SDS011;3600;48.568;7.870;2023-02-28T04:05:21;4.03;;;3.60;;
7116;SDS011;3600;48.568;7.870;2023-02-28T04:07:49;4.03;;;3.57;;
7116;SDS011;3600;48.568;7.870;2023-02-28T04:10:15;5.00;;;3.87;;
7116;SDS011;3600;48.568;7.870;2023-02-28T04:12:53;4.00;;;3.60;;
7116;SDS011;3600;48.568;7.870;2023-02-28T04:15:20;3.67;;;3.37;;
7116;SDS011;3600;48.568;7.870;2023-02-28T04:17:48;3.67;;;3.37;;
7116;SDS011;3600;48.568;7.870;2023-02-28T04:20:15;4.23;;;3.93;;
7116;SDS011;3600;48.568;7.870;2023-02-28T04:22:47;4.50;;;4.10;;
7116;SDS011;3600;48.568;7.870;2023-02-28T04:25:15;4.20;;;3.73;;
7116;SDS011;3600;48.568;7.870;2023-02-28T04:27:41;5.67;;;4.03;;
7116;SDS011;3600;48.568;7.870;2023-02-28T04:30:10;4.17;;;3.83;;
7116;SDS011;3600;48.568;7.870;2023-02-28T04:32:40;4.27;;;3.60;;
7116;SDS011;3600;48.568;7.870;2023-02-28T04:35:07;4.40;;;4.00;;
7116;SDS011;3600;48.568;7.870;2023-02-28T04:37:38;4.63;;;4.23;;
7116;SDS011;3600;48.568;7.870;2023-02-28T04:40:04;4.43;;;4.03;;
7116;SDS011;3600;48.568;7.870;2023-02-28T04:42:38;5.47;;;4.60;;
7116;SDS011;3600;48.568;7.870;2023-02-28T04:45:05;5.13;;;4.03;;
7116;SDS011;3600;48.568;7.870;2023-02-28T04:47:40;4.43;;;3.90;;
7116;SDS011;3600;48.568;7.870;2023-02-28T04:50:07;5.17;;;4.53;;
7116;SDS011;3600;48.568;7.870;2023-02-28T04:52:34;4.77;;;4.07;;
7116;SDS011;3600;48.568;7.870;2023-02-28T04:55:01;5.73;;;4.00;;
7116;SDS011;3600;48.568;7.870;2023-02-28T04:57:28;5.80;;;4.70;;
7116;SDS011;3600;48.568;7.870;2023-02-28T04:59:56;5.23;;;4.23;;
7116;SDS011;3600;48.568;7.870;2023-02-28T05:02:23;6.40;;;4.40;;
7116;SDS011;3600;48.568;7.870;2023-02-28T05:04:53;4.40;;;4.00;;
7116;SDS011;3600;48.568;7.870;2023-02-28T05:07:20;4.70;;;4.20;;
7116;SDS011;3600;48.568;7.870;2023-02-28T05:20:29;5.20;;;4.60;;
7116;SDS011;3600;48.568;7.870;2023-02-28T05:22:56;4.40;;;4.00;;
7116;SDS011;3600;48.568;7.870;2023-02-28T05:25:24;4.50;;;4.20;;
7116;SDS011;3600;48.568;7.870;2023-02-28T05:27:51;5.20;;;4.37;;
7116;SDS011;3600;48.568;7.870;2023-02-28T05:30:18;5.20;;;4.70;;
7116;SDS011;3600;48.568;7.870;2023-02-28T05:32:49;5.17;;;4.30;;
7116;SDS011;3600;48.568;7.870;2023-02-28T05:35:16;5.00;;;4.50;;
7116;SDS011;3600;48.568;7.870;2023-02-28T05:37:43;4.57;;;4.17;;
7116;SDS011;3600;48.568;7.870;2023-02-28T05:40:10;5.23;;;4.73;;
7116;SDS011;3600;48.568;7.870;2023-02-28T05:42:37;4.47;;;4.03;;
7116;SDS011;3600;48.568;7.870;2023-02-28T05:45:04;6.27;;;4.80;;
7116;SDS011;3600;48.568;7.870;2023-02-28T05:47:33;5.40;;;4.90;;
7116;SDS011;3600;48.568;7.870;2023-02-28T05:50:00;5.13;;;4.63;;
7116;SDS011;3600;48.568;7.870;2023-02-28T05:52:27;5.23;;;4.73;;
7116;SDS011;3600;48.568;7.870;2023-02-28T05:54:56;5.93;;;4.70;;
7116;SDS011;3600;48.568;7.870;2023-02-28T05:57:22;5.30;;;4.80;;
7116;SDS011;3600;48.568;7.870;2023-02-28T05:59:50;5.13;;;4.70;;
7116;SDS011;3600;48.568;7.870;2023-02-28T06:02:17;5.87;;;5.30;;
7116;SDS011;3600;48.568;7.870;2023-02-28T06:04:44;5.70;;;5.20;;
7116;SDS011;3600;48.568;7.870;2023-02-28T06:07:11;5.30;;;4.80;;
7116;SDS011;3600;48.568;7.870;2023-02-28T06:09:38;5.87;;;4.73;;
7116;SDS011;3600;48.568;7.870;2023-02-28T06:12:05;4.93;;;4.53;;
7116;SDS011;3600;48.568;7.870;2023-02-28T06:14:33;5.03;;;4.63;;
7116;SDS011;3600;48.568;7.870;2023-02-28T06:17:00;6.90;;;6.00;;
7116;SDS011;3600;48.568;7.870;2023-02-28T06:19:28;6.93;;;6.23;;
7116;SDS011;3600;48.568;7.870;2023-02-28T06:21:56;7.17;;;5.20;;
7116;SDS011;3600;48.568;7.870;2023-02-28T06:24:24;4.93;;;4.43;;
7116;SDS011;3600;48.568;7.870;2023-02-28T06:26:54;6.37;;;5.00;;
7116;SDS011;3600;48.568;7.870;2023-02-28T06:29:21;6.67;;;5.20;;
7116;SDS011;3600;48.568;7.870;2023-02-28T06:31:47;6.63;;;5.97;;
7116;SDS011;3600;48.568;7.870;2023-02-28T06:34:14;5.53;;;5.03;;
7116;SDS011;3600;48.568;7.870;2023-02-28T06:36:42;5.93;;;5.33;;
7116;SDS011;3600;48.568;7.870;2023-02-28T06:39:08;5.83;;;5.23;;
7116;SDS011;3600;48.568;7.870;2023-02-28T06:41:36;5.17;;;4.77;;
7116;SDS011;3600;48.568;7.870;2023-02-28T06:44:19;7.73;;;4.87;;
7116;SDS011;3600;48.568;7.870;2023-02-28T06:46:46;5.43;;;4.90;;
7116;SDS011;3600;48.568;7.870;2023-02-28T06:49:13;6.43;;;4.87;;
7116;SDS011;3600;48.568;7.870;2023-02-28T06:51:42;8.50;;;5.83;;
7116;SDS011;3600;48.568;7.870;2023-02-28T06:54:13;5.70;;;5.17;;
7116;SDS011;3600;48.568;7.870;2023-02-28T06:56:40;6.80;;;5.60;;
7116;SDS011;3600;48.568;7.870;2023-02-28T06:59:07;6.70;;;5.40;;
7116;SDS011;3600;48.568;7.870;2023-02-28T07:01:33;6.20;;;5.60;;
7116;SDS011;3600;48.568;7.870;2023-02-28T07:04:00;7.30;;;6.03;;
7116;SDS011;3600;48.568;7.870;2023-02-28T07:06:27;6.43;;;5.60;;
7116;SDS011;3600;48.568;7.870;2023-02-28T07:08:54;6.33;;;5.73;;
7116;SDS011;3600;48.568;7.870;2023-02-28T07:11:22;8.57;;;5.70;;
7116;SDS011;3600;48.568;7.870;2023-02-28T07:13:52;7.57;;;6.20;;
7116;SDS011;3600;48.568;7.870;2023-02-28T07:16:22;7.90;;;5.63;;
7116;SDS011;3600;48.568;7.870;2023-02-28T07:18:53;6.93;;;6.03;;
7116;SDS011;3600;48.568;7.870;2023-02-28T07:21:21;7.93;;;6.10;;
7116;SDS011;3600;48.568;7.870;2023-02-28T07:23:48;7.63;;;5.87;;
7116;SDS011;3600;48.568;7.870;2023-02-28T07:26:15;8.07;;;6.13;;
7116;SDS011;3600;48.568;7.870;2023-02-28T07:28:44;9.43;;;5.53;;
7116;SDS011;3600;48.568;7.870;2023-02-28T07:31:13;6.50;;;5.80;;
7116;SDS011;3600;48.568;7.870;2023-02-28T07:33:41;6.50;;;5.80;;
7116;SDS011;3600;48.568;7.870;2023-02-28T07:36:09;6.53;;;5.70;;
7116;SDS011;3600;48.568;7.870;2023-02-28T07:38:42;7.90;;;5.77;;
7116;SDS011;3600;48.568;7.870;2023-02-28T07:41:14;7.10;;;6.13;;
7116;SDS011;3600;48.568;7.870;2023-02-28T07:43:42;7.47;;;5.83;;
7116;SDS011;3600;48.568;7.870;2023-02-28T07:46:11;6.37;;;5.77;;
7116;SDS011;3600;48.568;7.870;2023-02-28T07:48:41;6.53;;;5.80;;
7116;SDS011;3600;48.568;7.870;2023-02-28T07:51:08;8.70;;;6.90;;
7116;SDS011;3600;48.568;7.870;2023-02-28T07:53:35;7.23;;;6.53;;
7116;SDS011;3600;48.568;7.870;2023-02-28T07:56:03;6.43;;;5.67;;
7116;SDS011;3600;48.568;7.870;2023-02-28T07:58:30;8.77;;;6.40;;
7116;SDS011;3600;48.568;7.870;2023-02-28T08:00:57;7.00;;;6.23;;
7116;SDS011;3600;48.568;7.870;2023-02-28T08:03:34;7.37;;;6.37;;
7116;SDS011;3600;48.568;7.870;2023-02-28T08:06:03;8.50;;;6.90;;
7116;SDS011;3600;48.568;7.870;2023-02-28T08:08:30;7.27;;;5.93;;
7116;SDS011;3600;48.568;7.870;2023-02-28T08:10:58;6.40;;;5.70;;
7116;SDS011;3600;48.568;7.870;2023-02-28T08:13:29;8.57;;;6.00;;
7116;SDS011;3600;48.568;7.870;2023-02-28T08:15:56;6.57;;;5.93;;
7116;SDS011;3600;48.568;7.870;2023-02-28T08:18:23;11.00;;;6.60;;
7116;SDS011;3600;48.568;7.870;2023-02-28T08:20:50;9.40;;;6.57;;
7116;SDS011;3600;48.568;7.870;2023-02-28T08:23:17;7.13;;;6.40;;
7116;SDS011;3600;48.568;7.870;2023-02-28T08:25:44;7.97;;;6.10;;
7116;SDS011;3600;48.568;7.870;2023-02-28T08:28:11;7.50;;;6.13;;
7116;SDS011;3600;48.568;7.870;2023-02-28T08:30:37;8.70;;;6.47;;
7116;SDS011;3600;48.568;7.870;2023-02-28T08:33:07;6.60;;;5.90;;
7116;SDS011;3600;48.568;7.870;2023-02-28T08:35:35;8.00;;;6.43;;
7116;SDS011;3600;48.568;7.870;2023-02-28T08:38:03;7.10;;;6.37;;
7116;SDS011;3600;48.568;7.870;2023-02-28T08:40:30;6.87;;;6.07;;
7116;SDS011;3600;48.568;7.870;2023-02-28T08:42:56;6.33;;;5.73;;
7116;SDS011;3600;48.568;7.870;2023-02-28T08:45:24;6.70;;;6.07;;
7116;SDS011;3600;48.568;7.870;2023-02-28T08:47:51;9.47;;;7.47;;
7116;SDS011;3600;48.568;7.870;2023-02-28T08:50:18;7.60;;;6.90;;
7116;SDS011;3600;48.568;7.870;2023-02-28T08:52:45;7.40;;;5.90;;
7116;SDS011;3600;48.568;7.870;2023-02-28T08:55:12;8.63;;;6.70;;
7116;SDS011;3600;48.568;7.870;2023-02-28T08:57:38;7.27;;;6.37;;
7116;SDS011;3600;48.568;7.870;2023-02-28T09:00:05;8.13;;;7.13;;
7116;SDS011;3600;48.568;7.870;2023-02-28T09:02:33;7.57;;;6.20;;
7116;SDS011;3600;48.568;7.870;2023-02-28T09:05:00;8.70;;;6.23;;
7116;SDS011;3600;48.568;7.870;2023-02-28T09:07:27;7.90;;;6.53;;
7116;SDS011;3600;48.568;7.870;2023-02-28T09:09:53;8.07;;;6.33;;
7116;SDS011;3600;48.568;7.870;2023-02-28T09:12:24;7.47;;;6.10;;
7116;SDS011;3600;48.568;7.870;2023-02-28T09:14:52;8.07;;;6.20;;
7116;SDS011;3600;48.568;7.870;2023-02-28T09:17:19;9.27;;;6.93;;
7116;SDS011;3600;48.568;7.870;2023-02-28T09:19:47;7.80;;;6.73;;
7116;SDS011;3600;48.568;7.870;2023-02-28T09:22:15;6.90;;;6.20;;
7116;SDS011;3600;48.568;7.870;2023-02-28T09:24:42;7.60;;;6.00;;
7116;SDS011;3600;48.568;7.870;2023-02-28T09:27:10;7.10;;;6.30;;
7116;SDS011;3600;48.568;7.870;2023-02-28T09:29:37;7.63;;;6.07;;
7116;SDS011;3600;48.568;7.870;2023-02-28T09:32:04;6.80;;;6.07;;
7116;SDS011;3600;48.568;7.870;2023-02-28T09:34:32;7.57;;;6.63;;
7116;SDS011;3600;48.568;7.870;2023-02-28T09:36:59;7.33;;;6.10;;
7116;SDS011;3600;48.568;7.870;2023-02-28T09:39:25;8.47;;;6.30;;
7116;SDS011;3600;48.568;7.870;2023-02-28T09:41:53;8.47;;;6.13;;
7116;SDS011;3600;48.568;7.870;2023-02-28T09:49:58;9.53;;;6.80;;
7116;SDS011;3600;48.568;7.870;2023-02-28T09:52:53;8.37;;;6.47;;
7116;SDS011;3600;48.568;7.870;2023-02-28T09:55:32;12.43;;;6.90;;
7116;SDS011;3600;48.568;7.870;2023-02-28T10:03:55;8.80;;;6.80;;
7116;SDS011;3600;48.568;7.870;2023-02-28T10:06:28;8.20;;;6.87;;
7116;SDS011;3600;48.568;7.870;2023-02-28T10:09:31;7.63;;;6.77;;
7116;SDS011;3600;48.568;7.870;2023-02-28T10:11:52;7.70;;;6.90;;
7116;SDS011;3600;48.568;7.870;2023-02-28T10:14:27;6.93;;;6.23;;
7116;SDS011;3600;48.568;7.870;2023-02-28T10:19:38;7.83;;;7.03;;
7116;SDS011;3600;48.568;7.870;2023-02-28T10:22:17;7.73;;;6.73;;
7116;SDS011;3600;48.568;7.870;2023-02-28T10:24:49;7.03;;;6.33;;
7116;SDS011;3600;48.568;7.870;2023-02-28T10:27:24;10.03;;;7.07;;
7116;SDS011;3600;48.568;7.870;2023-02-28T10:29:59;6.37;;;5.70;;
7116;SDS011;3600;48.568;7.870;2023-02-28T10:35:00;8.63;;;7.00;;
7116;SDS011;3600;48.568;7.870;2023-02-28T10:37:33;9.17;;;7.20;;
7116;SDS011;3600;48.568;7.870;2023-02-28T10:40:05;7.87;;;6.70;;
7116;SDS011;3600;48.568;7.870;2023-02-28T10:42:57;9.13;;;7.80;;
7116;SDS011;3600;48.568;7.870;2023-02-28T10:45:30;9.00;;;6.73;;
7116;SDS011;3600;48.568;7.870;2023-02-28T10:48:02;7.83;;;6.70;;
7116;SDS011;3600;48.568;7.870;2023-02-28T10:50:33;8.13;;;6.83;;
7116;SDS011;3600;48.568;7.870;2023-02-28T10:53:22;8.17;;;6.73;;
7116;SDS011;3600;48.568;7.870;2023-02-28T11:01:25;8.63;;;7.50;;
7116;SDS011;3600;48.568;7.870;2023-02-28T11:04:16;8.53;;;7.63;;
7116;SDS011;3600;48.568;7.870;2023-02-28T11:06:43;9.43;;;7.03;;
7116;SDS011;3600;48.568;7.870;2023-02-28T11:09:19;8.87;;;7.97;;
7116;SDS011;3600;48.568;7.870;2023-02-28T11:11:55;11.00;;;7.87;;
7116;SDS011;3600;48.568;7.870;2023-02-28T11:14:24;9.90;;;7.37;;
7116;SDS011;3600;48.568;7.870;2023-02-28T11:16:53;8.10;;;7.30;;
7116;SDS011;3600;48.568;7.870;2023-02-28T11:19:24;9.73;;;7.83;;
7116;SDS011;3600;48.568;7.870;2023-02-28T11:21:58;23.60;;;7.27;;
7116;SDS011;3600;48.568;7.870;2023-02-28T11:24:28;8.97;;;7.30;;
7116;SDS011;3600;48.568;7.870;2023-02-28T11:26:56;8.27;;;7.17;;
7116;SDS011;3600;48.568;7.870;2023-02-28T11:29:24;8.43;;;7.43;;
7116;SDS011;3600;48.568;7.870;2023-02-28T11:34:37;8.03;;;7.30;;
7116;SDS011;3600;48.568;7.870;2023-02-28T11:37:05;9.37;;;7.77;;
7116;SDS011;3600;48.568;7.870;2023-02-28T11:39:42;12.60;;;8.53;;
7116;SDS011;3600;48.568;7.870;2023-02-28T11:50:39;8.07;;;7.17;;
7116;SDS011;3600;48.568;7.870;2023-02-28T11:55:49;9.63;;;7.17;;
7116;SDS011;3600;48.568;7.870;2023-02-28T11:58:29;10.10;;;7.83;;
7116;SDS011;3600;48.568;7.870;2023-02-28T12:04:12;8.53;;;7.63;;
7116;SDS011;3600;48.568;7.870;2023-02-28T12:09:54;9.10;;;7.77;;
7116;SDS011;3600;48.568;7.870;2023-02-28T12:12:38;10.47;;;7.43;;
7116;SDS011;3600;48.568;7.870;2023-02-28T12:20:57;8.20;;;7.30;;
7116;SDS011;3600;48.568;7.870;2023-02-28T12:29:02;8.63;;;7.53;;
7116;SDS011;3600;48.568;7.870;2023-02-28T12:32:09;11.23;;;7.73;;
7116;SDS011;3600;48.568;7.870;2023-02-28T12:34:47;12.13;;;7.73;;
7116;SDS011;3600;48.568;7.870;2023-02-28T12:37:25;9.10;;;7.43;;
7116;SDS011;3600;48.568;7.870;2023-02-28T12:40:02;10.73;;;7.80;;
7116;SDS011;3600;48.568;7.870;2023-02-28T12:42:46;9.47;;;8.40;;
7116;SDS011;3600;48.568;7.870;2023-02-28T12:45:26;9.47;;;8.23;;
7116;SDS011;3600;48.568;7.870;2023-02-28T12:48:15;10.27;;;8.00;;
7116;SDS011;3600;48.568;7.870;2023-02-28T12:50:50;8.23;;;7.33;;
7116;SDS011;3600;48.568;7.870;2023-02-28T12:53:26;8.20;;;6.97;;
7116;SDS011;3600;48.568;7.870;2023-02-28T12:55:57;9.43;;;7.43;;
7116;SDS011;3600;48.568;7.870;2023-02-28T12:58:36;8.50;;;7.67;;
7116;SDS011;3600;48.568;7.870;2023-02-28T13:09:57;9.80;;;8.60;;
7116;SDS011;3600;48.568;7.870;2023-02-28T13:12:26;8.40;;;7.50;;
7116;SDS011;3600;48.568;7.870;2023-02-28T13:15:40;9.60;;;7.73;;
7116;SDS011;3600;48.568;7.870;2023-02-28T13:17:52;8.10;;;7.20;;
7116;SDS011;3600;48.568;7.870;2023-02-28T13:20:22;8.67;;;7.30;;
7116;SDS011;3600;48.568;7.870;2023-02-28T13:22:52;11.87;;;9.63;;
7116;SDS011;3600;48.568;7.870;2023-02-28T13:28:00;8.93;;;6.80;;
7116;SDS011;3600;48.568;7.870;2023-02-28T13:33:25;8.60;;;7.77;;
7116;SDS011;3600;48.568;7.870;2023-02-28T13:36:06;9.33;;;8.20;;
7116;SDS011;3600;48.568;7.870;2023-02-28T13:38:35;10.10;;;8.90;;
7116;SDS011;3600;48.568;7.870;2023-02-28T13:44:06;9.43;;;8.10;;
7116;SDS011;3600;48.568;7.870;2023-02-28T13:49:31;8.13;;;7.30;;
7116;SDS011;3600;48.568;7.870;2023-02-28T13:57:22;10.50;;;8.20;;
7116;SDS011;3600;48.568;7.870;2023-02-28T14:00:02;12.90;;;9.10;;
7116;SDS011;3600;48.568;7.870;2023-02-28T14:03:05;12.80;;;8.97;;
7116;SDS011;3600;48.568;7.870;2023-02-28T14:08:56;8.83;;;7.03;;
7116;SDS011;3600;48.568;7.870;2023-02-28T14:11:31;8.20;;;7.40;;
7116;SDS011;3600;48.568;7.870;2023-02-28T14:14:01;7.87;;;7.07;;
7116;SDS011;3600;48.568;7.870;2023-02-28T14:16:44;8.33;;;7.53;;
7116;SDS011;3600;48.568;7.870;2023-02-28T14:19:19;8.20;;;6.80;;
7116;SDS011;3600;48.568;7.870;2023-02-28T14:41:23;10.20;;;6.70;;
7116;SDS011;3600;48.568;7.870;2023-02-28T14:43:56;7.67;;;6.77;;
7116;SDS011;3600;48.568;7.870;2023-02-28T14:46:34;7.93;;;7.13;;
7116;SDS011;3600;48.568;7.870;2023-02-28T14:49:12;8.03;;;6.60;;
7116;SDS011;3600;48.568;7.870;2023-02-28T14:51:43;8.73;;;7.53;;
7116;SDS011;3600;48.568;7.870;2023-02-28T14:54:13;9.00;;;8.10;;
7116;SDS011;3600;48.568;7.870;2023-02-28T14:56:42;10.37;;;8.50;;
7116;SDS011;3600;48.568;7.870;2023-02-28T14:59:23;8.43;;;7.63;;
7116;SDS011;3600;48.568;7.870;2023-02-28T15:04:52;8.73;;;7.83;;
7116;SDS011;3600;48.568;7.870;2023-02-28T15:07:24;10.10;;;7.83;;
7116;SDS011;3600;48.568;7.870;2023-02-28T15:10:07;10.23;;;8.07;;
7116;SDS011;3600;48.568;7.870;2023-02-28T15:12:36;8.47;;;7.57;;
7116;SDS011;3600;48.568;7.870;2023-02-28T15:15:06;8.70;;;7.47;;
7116;SDS011;3600;48.568;7.870;2023-02-28T15:17:41;8.50;;;7.70;;
7116;SDS011;3600;48.568;7.870;2023-02-28T15:20:20;8.63;;;7.70;;
7116;SDS011;3600;48.568;7.870;2023-02-28T15:22:48;9.37;;;8.10;;
7116;SDS011;3600;48.568;7.870;2023-02-28T15:25:19;8.87;;;7.93;;
7116;SDS011;3600;48.568;7.870;2023-02-28T15:27:51;9.53;;;8.07;;
7116;SDS011;3600;48.568;7.870;2023-02-28T15:30:23;9.20;;;8.30;;
7116;SDS011;3600;48.568;7.870;2023-02-28T15:36:13;9.37;;;7.77;;
7116;SDS011;3600;48.568;7.870;2023-02-28T15:38:42;8.40;;;7.50;;
7116;SDS011;3600;48.568;7.870;2023-02-28T15:41:21;10.87;;;8.30;;
7116;SDS011;3600;48.568;7.870;2023-02-28T15:44:13;9.43;;;8.50;;
7116;SDS011;3600;48.568;7.870;2023-02-28T15:47:06;10.43;;;8.83;;
7116;SDS011;3600;48.568;7.870;2023-02-28T15:49:46;9.13;;;8.20;;
7116;SDS011;3600;48.568;7.870;2023-02-28T15:52:17;9.27;;;8.33;;
7116;SDS011;3600;48.568;7.870;2023-02-28T15:54:47;10.60;;;8.23;;
7116;SDS011;3600;48.568;7.870;2023-02-28T15:57:22;9.80;;;8.40;;
7116;SDS011;3600;48.568;7.870;2023-02-28T15:59:52;10.10;;;8.93;;
7116;SDS011;3600;48.568;7.870;2023-02-28T16:07:35;12.20;;;8.93;;
7116;SDS011;3600;48.568;7.870;2023-02-28T16:10:04;11.63;;;9.50;;
7116;SDS011;3600;48.568;7.870;2023-02-28T16:12:32;9.97;;;8.90;;
7116;SDS011;3600;48.568;7.870;2023-02-28T16:15:02;9.57;;;8.57;;
7116;SDS011;3600;48.568;7.870;2023-02-28T16:17:33;11.43;;;9.27;;
7116;SDS011;3600;48.568;7.870;2023-02-28T16:20:22;12.77;;;10.53;;
7116;SDS011;3600;48.568;7.870;2023-02-28T16:22:56;14.50;;;9.93;;
7116;SDS011;3600;48.568;7.870;2023-02-28T16:25:43;16.73;;;10.60;;
7116;SDS011;3600;48.568;7.870;2023-02-28T16:28:25;12.07;;;10.37;;
7116;SDS011;3600;48.568;7.870;2023-02-28T16:30:57;13.53;;;9.90;;
7116;SDS011;3600;48.568;7.870;2023-02-28T16:33:26;10.53;;;9.43;;
7116;SDS011;3600;48.568;7.870;2023-02-28T16:35:52;11.50;;;10.13;;
7116;SDS011;3600;48.568;7.870;2023-02-28T16:38:19;12.10;;;10.67;;
7116;SDS011;3600;48.568;7.870;2023-02-28T16:40:47;11.80;;;10.57;;
7116;SDS011;3600;48.568;7.870;2023-02-28T16:43:17;10.80;;;9.70;;
7116;SDS011;3600;48.568;7.870;2023-02-28T16:45:49;10.50;;;9.07;;
7116;SDS011;3600;48.568;7.870;2023-02-28T16:48:27;10.53;;;9.43;;
7116;SDS011;3600;48.568;7.870;2023-02-28T16:50:54;13.40;;;9.43;;
7116;SDS011;3600;48.568;7.870;2023-02-28T16:53:20;12.80;;;9.60;;
7116;SDS011;3600;48.568;7.870;2023-02-28T16:55:47;11.17;;;10.00;;
7116;SDS011;3600;48.568;7.870;2023-02-28T16:58:15;11.50;;;10.30;;
7116;SDS011;3600;48.568;7.870;2023-02-28T17:00:43;11.30;;;10.20;;
7116;SDS011;3600;48.568;7.870;2023-02-28T17:03:23;11.23;;;10.03;;
7116;SDS011;3600;48.568;7.870;2023-02-28T17:05:58;10.73;;;9.67;;
7116;SDS011;3600;48.568;7.870;2023-02-28T17:08:26;11.17;;;9.33;;
7116;SDS011;3600;48.568;7.870;2023-02-28T17:10:55;11.50;;;10.07;;
7116;SDS011;3600;48.568;7.870;2023-02-28T17:13:22;11.47;;;9.27;;
7116;SDS011;3600;48.568;7.870;2023-02-28T17:15:48;12.53;;;11.23;;
7116;SDS011;3600;48.568;7.870;2023-02-28T17:18:16;11.87;;;10.47;;
7116;SDS011;3600;48.568;7.870;2023-02-28T17:20:45;10.70;;;9.47;;
7116;SDS011;3600;48.568;7.870;2023-02-28T17:23:12;9.63;;;8.67;;
7116;SDS011;3600;48.568;7.870;2023-02-28T17:25:39;12.03;;;10.30;;
7116;SDS011;3600;48.568;7.870;2023-02-28T17:28:05;13.07;;;10.33;;
7116;SDS011;3600;48.568;7.870;2023-02-28T17:30:33;10.90;;;9.80;;
7116;SDS011;3600;48.568;7.870;2023-02-28T17:33:00;15.87;;;10.40;;
7116;SDS011;3600;48.568;7.870;2023-02-28T17:35:27;11.00;;;9.90;;
7116;SDS011;3600;48.568;7.870;2023-02-28T17:37:54;11.23;;;9.90;;
7116;SDS011;3600;48.568;7.870;2023-02-28T17:40:22;12.17;;;9.90;;
7116;SDS011;3600;48.568;7.870;2023-02-28T17:42:49;12.83;;;10.33;;
7116;SDS011;3600;48.568;7.870;2023-02-28T17:45:18;12.03;;;10.47;;
7116;SDS011;3600;48.568;7.870;2023-02-28T17:47:47;10.93;;;9.80;;
7116;SDS011;3600;48.568;7.870;2023-02-28T17:50:17;11.70;;;10.03;;
7116;SDS011;3600;48.568;7.870;2023-02-28T17:52:46;13.67;;;10.63;;
7116;SDS011;3600;48.568;7.870;2023-02-28T17:55:16;10.83;;;9.73;;
7116;SDS011;3600;48.568;7.870;2023-02-28T17:57:45;11.20;;;10.00;;
7116;SDS011;3600;48.568;7.870;2023-02-28T18:00:13;11.37;;;10.00;;
7116;SDS011;3600;48.568;7.870;2023-02-28T18:02:42;12.23;;;9.30;;
7116;SDS011;3600;48.568;7.870;2023-02-28T18:05:10;11.30;;;9.83;;
7116;SDS011;3600;48.568;7.870;2023-02-28T18:07:37;12.30;;;10.37;;
7116;SDS011;3600;48.568;7.870;2023-02-28T18:10:05;12.60;;;10.43;;
7116;SDS011;3600;48.568;7.870;2023-02-28T18:12:37;10.70;;;9.70;;
7116;SDS011;3600;48.568;7.870;2023-02-28T18:15:04;12.47;;;9.87;;
7116;SDS011;3600;48.568;7.870;2023-02-28T18:17:32;12.10;;;10.03;;